AirNav   Everest Fuels
 
 709 users online  

KCNP Billy G Ray Field Airport
Chappell, Nebraska, USA

GOING TO CHAPPELL?


FAA INFORMATION EFFECTIVE 19 MAY 2022

Location

FAA Identifier: CNP
Lat/Long: 41-04-38.9000N 102-27-50.6000W
41-04.648333N 102-27.843333W
41.0774722,-102.4640556
(estimated)
Elevation: 3681.7 ft. / 1122 m (estimated)
Variation: 10E (1990)
From city: 1 mile S of CHAPPELL, NE
Time zone: UTC -6 (UTC -7 during Standard Time)
Zip code: 69129

Airport Operations

Airport use: Open to the public
Control tower: no
ARTCC: DENVER CENTER
FSS: COLUMBUS FLIGHT SERVICE STATION
NOTAMs facility: OLU (NOTAM-D service available)
Attendance: UNATNDD
Wind indicator: lighted
Segmented circle: no
Lights: MIRL RWY 12/30 PRESET LOW INTST; TO INCR INTST ACTVT - CTAF.
Beacon: white-green (lighted land airport)
Operates sunset to sunrise.

Airport Communications

CTAF: 122.9
  • APCH/DEP CTL SVC PRVDD BY DENVER ARTCC (ZDV) ON FREQS 118.475/225.4 (BRUSH/B/ RCAG).

Nearby radio navigation aids

VOR radial/distance  VOR name  Freq  Var
SNYr080/23.5SIDNEY VOR/DME115.9013E
SAEr258/31.2SEARLE VOR/DME110.2007E

 
NDB name  Hdg/Dist  Freq  Var  ID
CHAPPELLat field38310ECNP -.-. -. .--.
OSHKOSH186/20.123309EOKS --- -.- ...
GRANT281/35.535909EGGF --. --. ..-.

Airport Services

Fuel available: 100LL
Parking: tiedowns
Airframe service: NONE
Powerplant service: NONE
Bottled oxygen: NONE
Bulk oxygen: NONE

Runway Information

Runway 12/30

Dimensions: 4000 x 55 ft. / 1219 x 17 m
Surface: asphalt, in poor condition
SEVERE BLOCK CRACKING AND FOD THRU OUT PVMNT.
Weight bearing capacity: 
PCN 72 /F/D/Z/T
Single wheel: 15.0
Runway edge lights: medium intensity
RUNWAY 12  RUNWAY 30
Latitude: 41-04.858517N41-04.436817N
Longitude: 102-28.177333W102-27.508717W
Elevation: 3681.3 ft.3677.8 ft.
Traffic pattern: leftleft
Runway heading: 120 magnetic, 130 true300 magnetic, 310 true
Displaced threshold: no130 ft.
Markings: nonprecision, in fair conditionnonprecision, in fair condition
Touchdown point: yes, no lightsyes, no lights
Obstructions: 30 ft. road, 709 ft. from runway, 288 ft. right of centerline, 16:1 slope to clear11 ft. road, 371 ft. from runway, 155 ft. right of centerline, 15:1 slope to clear
APCH SLOPE 45:1 TO DSPLCD THLD.

Airport Ownership and Management from official FAA records

Ownership: Publicly-owned
Owner: CHAPPELL AIRPORT AUTHORITY
PO BOX 546
CHAPPELL, NE 69129-0546
Phone 308-874-2708
Manager: CHRIS RAY
PO BOX 546
CHAPPELL, NE 69129-0546
Phone 308-874-4350

Airport Operational Statistics

Aircraft based on the field: 6
Single engine airplanes: 6
    
Aircraft operations: avg 70/week *
74% local general aviation
26% transient general aviation
* for 12-month period ending 14 May 2019

Additional Remarks

FOR CD CTC DENVER ARTCC AT 303-651-4257.

Instrument Procedures

NOTE: All procedures below are presented as PDF files. If you need a reader for these files, you should download the free Adobe Reader.

NOT FOR NAVIGATION. Please procure official charts for flight.
FAA instrument procedures published for use from 19 May 2022 at 0901Z to 16 June 2022 at 0900Z.

 
IAPs - Instrument Approach Procedures
NDB OR GPS RWY 30 **CHANGED**   download (202KB)
NOTE: Special Take-Off Minimums/Departure Procedures apply **CHANGED**   download (358KB)

Other nearby airports with instrument procedures:

KOKS - Garden County Airport/King Rhiley Field (20 nm N)
KSNY - Sidney Municipal Airport/Lloyd W. Carr Field (24 nm W)
KOGA - Searle Field Airport (31 nm E)
KHEQ - Holyoke Airport (32 nm S)
KGGF - Grant Municipal Airport (35 nm E)
 
Loc | Ops | Rwys | IFR | FBO | Links
Com | Nav | Svcs | Stats | Notes

AirBoss

 
Area around KCNP (Billy G Ray Field Airport)
 
Road maps at: MapQuest Bing Google
 
Aerial photo
WARNING: Photo may not be current or correct
Aerial photo of KCNP (Billy G Ray Field Airport)
Do you have a better or more recent aerial photo of Billy G Ray Field Airport that you would like to share? If so, please send us your photo.

 
Sectional chart

 
Airport distance calculator
Flying to Billy G Ray Field Airport? Find the distance to fly.

From to KCNP

Sunrise and sunset
Times for 20-May-2022
 Local
(UTC-6)
 Zulu
(UTC)
Morning civil twilight04:5610:56
Sunrise05:2811:28
Sunset20:0402:04
Evening civil twilight20:3602:36

Current date and time
Zulu (UTC)  21-May-2022 04:24:04
Local (UTC-6)  20-May-2022 22:24:04
 
METAR
KSNY 
24nm W 
210353Z AUTO 03006KT 10SM CLR 04/M03 A3005 RMK AO2 SLP179 T00441028
KOGA 
31nm E 
210355Z AUTO 36009KT 10SM CLR 08/M01 A3005 RMK AO2 T00751011
KHEQ 
32nm S 
210355Z AUTO 36010KT 10SM CLR 08/M02 A3006 RMK AO2
KSTK 
46nm SW 
210355Z AUTO 33005KT 10SM OVC075 06/M03 A3006 RMK AO2
TAF
KSNY 
24nm W 
201738Z 2018/2118 33018G28KT P6SM VCSH SCT025 BKN040 FM202100 34018G28KT P6SM BKN040 FM210100 36010KT P6SM BKN080 FM210900 34007KT P6SM SCT020 BKN100
NOTAMs
Click for the latest NOTAMs
NOTAMs are issued by the DoD/FAA and will open in a separate window not controlled by AirNav.

 

 
 

Would you like to see your business listed on this page?

 If your business provides an interesting product or service to pilots, flight crews, aircraft, or users of the Billy G Ray Field Airport, you should consider listing it here.  To start the listing process, click on the button below
 
Add a business
 

Other Pages about Billy G Ray Field Airport

Update a link
 
Copyright © AirNav, LLC. All rights reserved. Privacy Policy  Contact